Relevés horaires Matro (Suisse)


Relevés horaires à Matro - Vendredi 26 Déc. 2014
Heure UTC1 Température [°C] Vent [km/h] Hum. [%] Pres.4 [hPa] Visi. [Km] Nébu. [octa] Préc.5 [mm] Cond.
2m. Res. Ros. Dir.2 Vit. Moy. Raf.3
23:00 -9.3 -15.4 -24.1 ONO 13.0 18.5 24.1 29 850(-1.7/3h) -- -- -- --
22:00 -9.7 -17.6 -23.7 NO 20.4 27.8 31.5 31 850(-1.5/3h) -- -- -- --
21:00 -9.9 -18.5 -20.3 NO 24.1 27.8 50.0 42 850(-0.9/3h) -- -- -- --
20:00 -10.3 -17.9 -18.8 NO 18.5 24.1 40.7 50 850(-0.7/3h) -- -- -- --
19:00 -10.4 -18.8 -18.0 NO 22.2 27.8 50.0 53 850(-0.6/3h) -- -- -- --
18:00 -10.1 -19.3 -17.6 NNO 27.8 40.7 51.9 54 850(-0.8/3h) -- -- -- --
17:00 -10.1 -20.8 -17.3 NNO 38.9 38.9 50.0 55 850(-0.6/3h) -- -- -- --
16:00 -9.9 -20.3 -17.5 NNO 37.0 37.0 51.9 54 850(-0.5/3h) -- -- -- --
15:00 -9.3 -19.3 -17.4 NO 35.2 35.2 50.0 52 850(-0.8/3h) -- -- -- --
14:00 -8.6 -16.8 -17.8 NO 24.1 25.9 50.0 47 850(-1.3/3h) -- -- -- --
13:00 -8.7 -17.2 -17.9 NO 25.9 25.9 42.6 47 850(-1.6/3h) -- -- -- --
12:00 -8.7 -17.5 -17.7 NO 27.8 38.9 61.1 48 850(-0.9/3h) -- -- -- --
11:00 -9.0 -17.3 -17.1 NNO 24.1 31.5 48.2 52 850(0.0/3h) -- -- -- --
10:00 -9.7 -17.9 -15.8 NNO 22.2 33.3 46.3 61 850(0.7/3h) -- -- -- --
09:00 -9.8 -19.9 -16.5 NNO 35.2 38.9 61.1 58 850(1.0/3h) -- -- -- --
08:00 -9.8 -19.5 -17.5 NNO 31.5 38.9 57.4 53 850(1.0/3h) -- -- -- --
07:00 -9.6 -20.1 -17.7 NNO 38.9 38.9 61.1 51 850(1.0/3h) -- -- -- --
06:00 -9.4 -19.2 -16.7 NNO 33.3 46.3 68.5 55 850(0.4/3h) -- -- -- --
05:00 -9.6 -19.7 -14.8 NNO 35.2 40.7 55.6 66 850(0.0/3h) -- -- -- --
04:00 -9.3 -19.3 -14.9 NNO 35.2 37.0 57.4 64 850(-0.1/3h) -- -- -- --
03:00 -8.4 -18.7 -17.1 NNO 40.7 46.3 68.5 49 850(0.0/3h) -- -- -- --
02:00 -8.3 -18.8 -17.6 NNO 42.6 46.3 68.5 47 850(-0.2/3h) -- -- -- --
01:00 -8.4 -18.9 -14.7 NO 42.6 42.6 59.3 60 850(-0.3/3h) -- -- -- --
00:00 -8.0 -18.2 -17.4 NNO 40.7 50.0 72.2 47 850(-0.3/3h) -- -- -- --

1 Coordinated Universal Time. Actuellement il est 11:00 locale et 09:00 UTC.

2 Le vent souffle depuis la direction indiquée vers la direction oposée.

3 Les rafales max. sont disponible 40 min après l'heure du relevé.

4 Pour les stations d'altitude (plus de 600m) le géopotentiel du niveau le plus proche de la pression obligatoire est indiqué.

5 Les stations disposant d'un diffuseur peuvent indiquer "trace". Cela signifie que des précipitations ont touchés le sol mais que la quantité est inférieure à 0.1 mm.

Copyright

Les données affichées sur cette page sont la propriété exclusive de Météo Suisse.

Récapitulatif de la journée
Température [°C] Vent [km/h] Ensoleillement4 [h] Precipitations totale5 [mm] Pression [Hpa]
Min1 Max.2 Moy.3 Max. Min Max.
-9.6 -8.6 35.8 72.2 6 h 48 min 0 850.0 850.0

1 Température minimale relevée entre 18:00 UTC la veille et 18:00 UTC le jour donné.

2 Température maximale relevée entre 06:00 UTC le jour donné et 06:00 UTC le lendemain.

3 Vent moyen de la journée basé sur les relevés horaires.

4 Ensoleillement en heures relevé entre 06:00 UTC la veille et 06:00 UTC le jour donné.

5 Précipitations totales tombées entre 06:00 UTC la jour donné et 06:00 UTC le lendemain.

Graphiques horaires